createdAt,value
2022-12-18T00:02:05.371Z,36.47
2022-12-18T00:04:31.942Z,35.92
2022-12-18T00:06:58.466Z,43.42
2022-12-18T00:09:25.256Z,31.37
2022-12-18T00:11:57.827Z,39.13
2022-12-18T00:14:24.216Z,39.58
2022-12-18T00:16:50.640Z,31.30
2022-12-18T00:19:17.127Z,34.73
2022-12-18T00:21:44.633Z,38.40
2022-12-18T00:24:11.824Z,29.95
2022-12-18T00:26:39.626Z,27.73
2022-12-18T00:29:11.257Z,32.72
2022-12-18T00:31:38.410Z,35.75
2022-12-18T00:34:05.024Z,41.00
2022-12-18T00:36:34.333Z,32.47
2022-12-18T00:39:05.026Z,36.92
2022-12-18T00:41:50.101Z,43.05
2022-12-18T00:44:18.968Z,38.05
2022-12-18T00:46:46.606Z,40.97
2022-12-18T00:49:13.155Z,40.25
2022-12-18T00:51:40.308Z,42.45
2022-12-18T00:54:06.834Z,37.03
2022-12-18T00:56:33.208Z,39.40
2022-12-18T00:58:59.726Z,39.13
2022-12-18T01:01:26.504Z,42.25
2022-12-18T01:03:53.127Z,47.17
2022-12-18T01:06:19.587Z,42.35
2022-12-18T01:08:46.052Z,44.55
2022-12-18T01:11:15.299Z,33.00
2022-12-18T01:13:42.272Z,43.92
2022-12-18T01:16:09.893Z,35.38
2022-12-18T01:18:36.523Z,38.72
2022-12-18T01:21:10.174Z,37.57
2022-12-18T01:23:37.127Z,39.42
2022-12-18T01:26:08.863Z,37.65
2022-12-18T01:28:35.329Z,34.17
2022-12-18T01:31:12.014Z,41.58
2022-12-18T01:33:38.921Z,43.30
2022-12-18T01:36:06.217Z,33.40
2022-12-18T01:38:32.764Z,33.43
2022-12-18T01:41:02.933Z,44.42
2022-12-18T01:43:45.737Z,39.45
2022-12-18T01:46:13.287Z,33.03
2022-12-18T01:48:40.409Z,37.83
2022-12-18T01:51:09.509Z,37.78
2022-12-18T01:53:38.394Z,35.30
2022-12-18T01:56:05.559Z,35.50
2022-12-18T01:58:50.392Z,52.65
2022-12-18T02:01:17.205Z,35.95
2022-12-18T02:03:45.274Z,37.40
2022-12-18T02:06:24.241Z,36.75
2022-12-18T02:08:59.665Z,33.85
2022-12-18T02:11:37.906Z,36.63
2022-12-18T02:14:04.275Z,39.03
2022-12-18T02:16:49.333Z,38.72
2022-12-18T02:19:44.677Z,39.35
2022-12-18T02:22:23.338Z,34.58
2022-12-18T02:25:27.067Z,35.33
2022-12-18T02:27:55.689Z,33.58
2022-12-18T02:30:23.208Z,32.58
2022-12-18T02:32:53.421Z,31.83
2022-12-18T02:35:28.454Z,33.17
2022-12-18T02:37:55.864Z,30.20
2022-12-18T02:40:24.554Z,32.87
2022-12-18T02:42:51.099Z,37.35
2022-12-18T02:45:17.948Z,39.42
2022-12-18T02:47:48.177Z,32.22
2022-12-18T02:50:31.619Z,36.60
2022-12-18T02:53:14.800Z,31.08
2022-12-18T02:56:09.033Z,29.98
2022-12-18T02:58:55.300Z,28.27
2022-12-18T03:01:56.082Z,29.73
2022-12-18T03:04:38.590Z,24.90
2022-12-18T03:07:12.527Z,32.93
2022-12-18T03:09:46.990Z,33.83
2022-12-18T03:12:25.308Z,33.20
2022-12-18T03:15:09.536Z,28.30
2022-12-18T03:17:41.383Z,32.25
2022-12-18T03:20:15.302Z,32.97
2022-12-18T03:22:45.180Z,38.88
2022-12-18T03:25:14.853Z,31.33
2022-12-18T03:27:46.871Z,32.17
2022-12-18T03:30:15.353Z,30.10
2022-12-18T03:33:02.744Z,27.90
2022-12-18T03:35:34.856Z,30.98
2022-12-18T03:38:01.723Z,26.95
2022-12-18T03:40:41.608Z,33.50
2022-12-18T03:43:36.543Z,27.52
2022-12-18T03:46:12.997Z,25.70
2022-12-18T03:48:45.118Z,27.08
2022-12-18T03:51:19.810Z,25.70
2022-12-18T03:53:49.163Z,27.38
2022-12-18T03:56:17.996Z,28.63
2022-12-18T03:58:46.303Z,30.83
2022-12-18T04:01:16.645Z,27.92
2022-12-18T04:03:46.862Z,24.35
2022-12-18T04:06:15.860Z,26.08
2022-12-18T04:08:43.071Z,25.45
2022-12-18T04:11:09.660Z,19.55
2022-12-18T04:13:38.657Z,24.42
2022-12-18T04:16:06.404Z,24.00
2022-12-18T04:18:32.945Z,29.02
2022-12-18T04:20:59.347Z,28.45
2022-12-18T04:23:25.811Z,24.87
2022-12-18T04:25:52.255Z,26.58
2022-12-18T04:28:18.782Z,24.73
2022-12-18T04:30:51.748Z,20.05
2022-12-18T04:33:19.485Z,21.20
2022-12-18T04:35:46.359Z,24.67
2022-12-18T04:38:12.961Z,26.23
2022-12-18T04:40:39.397Z,20.33
2022-12-18T04:43:07.723Z,21.08
2022-12-18T04:45:34.717Z,18.17
2022-12-18T04:48:02.413Z,19.50
2022-12-18T04:50:29.138Z,23.00
2022-12-18T04:52:55.790Z,18.35
2022-12-18T04:55:25.347Z,17.60
2022-12-18T04:57:51.798Z,18.60
2022-12-18T05:00:18.548Z,25.73
2022-12-18T05:02:45.113Z,22.35
2022-12-18T05:05:11.805Z,21.83
2022-12-18T05:07:38.233Z,23.52
2022-12-18T05:10:07.850Z,21.42
2022-12-18T05:12:34.373Z,20.13
2022-12-18T05:15:00.802Z,17.75
2022-12-18T05:17:27.211Z,17.05
2022-12-18T05:19:53.594Z,14.65
2022-12-18T05:22:20.026Z,14.85
2022-12-18T05:24:46.457Z,18.02
2022-12-18T05:27:12.841Z,18.23
2022-12-18T05:29:39.367Z,18.57
2022-12-18T05:32:05.735Z,16.75
2022-12-18T05:34:32.204Z,16.17
2022-12-18T05:36:58.579Z,19.97
2022-12-18T05:39:24.968Z,17.58
2022-12-18T05:41:51.345Z,18.40
2022-12-18T05:44:17.854Z,16.50
2022-12-18T05:46:44.365Z,13.55
2022-12-18T05:49:10.854Z,16.27
2022-12-18T05:51:37.357Z,16.73
2022-12-18T05:54:03.962Z,13.33
2022-12-18T05:56:32.180Z,19.67
2022-12-18T05:58:58.783Z,14.32
2022-12-18T06:01:27.327Z,17.00
2022-12-18T06:03:53.965Z,18.88
2022-12-18T06:06:23.925Z,14.35
2022-12-18T06:08:51.635Z,18.88
2022-12-18T06:11:20.959Z,18.92
2022-12-18T06:13:53.567Z,16.35
2022-12-18T06:16:24.268Z,12.57
2022-12-18T06:18:50.852Z,18.70
2022-12-18T06:21:17.236Z,20.00
2022-12-18T06:23:43.787Z,14.75
2022-12-18T06:26:12.341Z,17.80
2022-12-18T06:28:39.195Z,18.15
2022-12-18T06:31:06.093Z,15.38
2022-12-18T06:33:33.491Z,16.27
2022-12-18T06:36:12.481Z,17.15
2022-12-18T06:38:41.711Z,21.67
2022-12-18T06:41:09.707Z,19.40
2022-12-18T06:43:36.269Z,20.03
2022-12-18T06:46:04.404Z,18.85
2022-12-18T06:48:31.425Z,14.68
2022-12-18T06:50:58.071Z,17.27
2022-12-18T06:53:24.834Z,18.48
2022-12-18T06:55:51.382Z,16.35
2022-12-18T06:58:18.184Z,13.00
2022-12-18T07:00:44.622Z,17.33
2022-12-18T07:03:12.328Z,14.50
2022-12-18T07:05:41.843Z,19.98
2022-12-18T07:08:08.306Z,20.63
2022-12-18T07:10:35.261Z,13.80
2022-12-18T07:13:01.666Z,11.85
2022-12-18T07:15:28.079Z,17.37
2022-12-18T07:17:54.557Z,12.80
2022-12-18T07:20:21.021Z,14.75
2022-12-18T07:22:50.799Z,17.23
2022-12-18T07:25:19.680Z,13.50
2022-12-18T07:27:46.095Z,14.60
2022-12-18T07:30:12.680Z,12.95
2022-12-18T07:32:39.084Z,13.43
2022-12-18T07:35:05.708Z,13.25
2022-12-18T07:37:32.108Z,14.90
2022-12-18T07:39:58.565Z,14.37
2022-12-18T07:42:33.799Z,16.15
2022-12-18T07:45:01.343Z,12.57
2022-12-18T07:47:29.107Z,12.57
2022-12-18T07:49:56.532Z,17.73
2022-12-18T07:52:26.252Z,13.23
2022-12-18T07:54:52.933Z,12.95
2022-12-18T07:57:48.359Z,13.97
2022-12-18T08:00:06.429Z,13.23
2022-12-18T08:02:33.151Z,14.35
2022-12-18T08:04:59.790Z,16.20
2022-12-18T08:07:26.154Z,13.20
2022-12-18T08:09:52.588Z,13.05
2022-12-18T08:12:19.149Z,16.70
2022-12-18T08:14:45.540Z,13.07
2022-12-18T08:17:11.974Z,14.52
2022-12-18T08:19:38.360Z,16.95
2022-12-18T08:22:04.802Z,21.63
2022-12-18T08:24:31.604Z,14.88
2022-12-18T08:27:27.850Z,17.08
2022-12-18T08:29:44.635Z,16.40
2022-12-18T08:32:11.251Z,18.58
2022-12-18T08:34:37.754Z,16.00
2022-12-18T08:37:04.467Z,13.30
2022-12-18T08:39:31.593Z,14.23
2022-12-18T08:42:16.577Z,25.80
2022-12-18T08:44:43.040Z,14.90
2022-12-18T08:47:09.481Z,13.90
2022-12-18T08:49:36.178Z,12.07
2022-12-18T08:52:03.739Z,14.00
2022-12-18T08:54:30.395Z,15.83
2022-12-18T08:56:56.796Z,12.82
2022-12-18T08:59:24.199Z,13.25
2022-12-18T09:01:51.034Z,14.32
2022-12-18T09:04:18.176Z,15.65
2022-12-18T09:06:44.657Z,16.58
2022-12-18T09:09:11.930Z,15.82
2022-12-18T09:11:38.473Z,14.60
2022-12-18T09:14:05.044Z,16.08
2022-12-18T09:16:32.995Z,16.23
2022-12-18T09:19:00.763Z,17.40
2022-12-18T09:21:29.902Z,17.77
2022-12-18T09:23:57.278Z,13.88
2022-12-18T09:26:25.275Z,13.82
2022-12-18T09:28:51.922Z,14.57
2022-12-18T09:31:21.839Z,15.13
2022-12-18T09:33:48.333Z,13.27
2022-12-18T09:36:17.624Z,13.03
2022-12-18T09:38:44.652Z,15.73
2022-12-18T09:41:44.423Z,13.80
2022-12-18T09:44:26.035Z,14.05
2022-12-18T09:46:55.668Z,15.23
2022-12-18T09:49:26.258Z,13.43
2022-12-18T09:52:00.959Z,15.57
2022-12-18T09:54:34.615Z,16.13
2022-12-18T09:57:01.017Z,12.45
2022-12-18T09:59:38.014Z,12.93
2022-12-18T10:02:32.097Z,15.80
2022-12-18T10:05:11.365Z,13.57
2022-12-18T10:07:49.670Z,13.90
2022-12-18T10:10:38.908Z,9.15
2022-12-18T10:13:31.129Z,11.63
2022-12-18T10:16:14.250Z,13.17
2022-12-18T10:18:55.573Z,15.85
2022-12-18T10:21:32.970Z,12.27
2022-12-18T10:24:18.038Z,12.93
2022-12-18T10:26:45.373Z,12.80
2022-12-18T10:29:17.328Z,11.55
2022-12-18T10:31:44.190Z,12.27
2022-12-18T10:34:17.132Z,11.73
2022-12-18T10:36:43.752Z,13.67
2022-12-18T10:39:24.828Z,13.60
2022-12-18T10:41:51.589Z,13.05
2022-12-18T10:44:21.564Z,10.30
2022-12-18T10:46:51.218Z,11.87
2022-12-18T10:49:25.064Z,12.68
2022-12-18T10:52:04.358Z,11.80
2022-12-18T10:54:32.851Z,10.13
2022-12-18T10:57:30.265Z,12.10
2022-12-18T10:59:59.192Z,12.13
2022-12-18T11:02:35.843Z,13.25
2022-12-18T11:05:03.613Z,11.40
2022-12-18T11:07:50.978Z,12.80
2022-12-18T11:10:20.121Z,10.68
2022-12-18T11:12:47.271Z,12.48
2022-12-18T11:15:27.363Z,10.95
2022-12-18T11:17:53.972Z,11.07
2022-12-18T11:20:34.639Z,11.85
2022-12-18T11:23:11.421Z,12.43
2022-12-18T11:25:37.891Z,16.00
2022-12-18T11:28:07.043Z,12.73
2022-12-18T11:30:37.931Z,13.18
2022-12-18T11:33:17.373Z,14.77
2022-12-18T11:35:53.226Z,11.55
2022-12-18T11:38:33.592Z,10.97
2022-12-18T11:41:15.653Z,17.33
2022-12-18T11:43:50.596Z,10.02
2022-12-18T11:46:30.348Z,11.32
2022-12-18T11:49:07.269Z,15.83
2022-12-18T11:51:42.465Z,11.90
2022-12-18T11:54:16.501Z,10.98
2022-12-18T11:57:02.254Z,12.00
2022-12-18T11:59:48.713Z,14.03
2022-12-18T12:02:43.554Z,12.40
2022-12-18T12:05:38.178Z,11.50
2022-12-18T12:08:13.835Z,11.35
2022-12-18T12:10:56.680Z,11.93
2022-12-18T12:13:39.772Z,11.52
2022-12-18T12:16:23.266Z,10.50
2022-12-18T12:19:01.706Z,10.77
2022-12-18T12:21:38.291Z,12.60
2022-12-18T12:24:29.525Z,12.35
2022-12-18T12:27:11.656Z,12.45
2022-12-18T12:29:47.542Z,12.10
2022-12-18T12:32:55.894Z,12.15
2022-12-18T12:35:41.241Z,15.70
2022-12-18T12:38:13.870Z,11.88
2022-12-18T12:40:58.522Z,13.38
2022-12-18T12:43:37.332Z,13.68
2022-12-18T12:46:07.405Z,13.83
2022-12-18T12:48:54.163Z,14.75
2022-12-18T12:51:30.748Z,13.77
2022-12-18T12:53:58.866Z,13.27
2022-12-18T12:56:35.849Z,14.32
2022-12-18T12:59:10.101Z,18.07
2022-12-18T13:02:04.210Z,14.27
2022-12-18T13:04:36.811Z,14.15
2022-12-18T13:07:21.235Z,10.55
2022-12-18T13:10:23.718Z,13.35
2022-12-18T13:13:10.551Z,12.30
2022-12-18T13:16:06.709Z,15.82
2022-12-18T13:18:34.298Z,12.60
2022-12-18T13:21:03.341Z,12.52
2022-12-18T13:23:40.745Z,13.98
2022-12-18T13:26:07.511Z,13.63
2022-12-18T13:28:33.867Z,12.60
2022-12-18T13:31:02.177Z,13.82
2022-12-18T13:33:34.590Z,11.30
2022-12-18T13:36:22.800Z,12.17
2022-12-18T13:39:30.077Z,13.85
2022-12-18T13:42:06.935Z,12.52
2022-12-18T13:44:42.888Z,14.90
2022-12-18T13:47:34.293Z,11.67
2022-12-18T13:50:03.125Z,10.73
2022-12-18T13:52:37.048Z,12.15
2022-12-18T13:55:16.550Z,13.98
2022-12-18T13:57:42.965Z,13.95
2022-12-18T14:00:30.367Z,12.57
2022-12-18T14:02:58.584Z,13.70
2022-12-18T14:05:26.419Z,12.98
2022-12-18T14:07:54.729Z,14.48
2022-12-18T14:13:11.199Z,13.70
2022-12-18T14:15:44.458Z,12.25
2022-12-18T14:18:26.218Z,13.88
2022-12-18T14:20:55.945Z,15.70
2022-12-18T14:23:31.349Z,16.67
2022-12-18T14:26:02.231Z,16.02
2022-12-18T14:28:32.147Z,14.20
2022-12-18T14:30:58.640Z,15.05
2022-12-18T14:33:27.380Z,15.48
2022-12-18T14:36:01.784Z,12.40
2022-12-18T14:38:35.176Z,15.70
2022-12-18T14:41:11.264Z,14.55
2022-12-18T14:43:40.319Z,14.10
2022-12-18T14:46:38.781Z,13.88
2022-12-18T14:49:26.894Z,14.17
2022-12-18T14:52:20.719Z,13.05
2022-12-18T14:54:48.582Z,13.82
2022-12-18T14:57:27.400Z,13.82
2022-12-18T14:59:53.964Z,18.30
2022-12-18T15:02:27.440Z,13.33
2022-12-18T15:05:15.587Z,17.77
2022-12-18T15:07:47.710Z,15.88
2022-12-18T15:10:14.390Z,14.70
2022-12-18T15:12:42.042Z,13.80
2022-12-18T15:15:45.940Z,15.77
2022-12-18T15:18:29.381Z,19.13
2022-12-18T15:21:01.168Z,13.65
2022-12-18T15:23:27.505Z,21.02
2022-12-18T15:26:03.999Z,15.37
2022-12-18T15:28:38.166Z,16.48
2022-12-18T15:31:33.276Z,14.43
2022-12-18T15:34:23.419Z,16.25
2022-12-18T15:36:51.719Z,13.13
2022-12-18T15:39:18.107Z,15.43
2022-12-18T15:42:04.994Z,17.10
2022-12-18T15:44:31.808Z,12.80
2022-12-18T15:46:59.404Z,13.90
2022-12-18T15:49:25.984Z,15.93
2022-12-18T15:51:59.107Z,15.02
2022-12-18T15:54:44.273Z,17.05
2022-12-18T15:57:24.019Z,17.90
2022-12-18T15:59:57.324Z,15.07
2022-12-18T16:02:24.408Z,15.77
2022-12-18T16:04:52.875Z,17.20
2022-12-18T16:07:24.897Z,15.95
2022-12-18T16:09:52.566Z,16.52
2022-12-18T16:12:25.172Z,14.70
2022-12-18T16:14:51.579Z,15.75
2022-12-18T16:17:18.110Z,17.95
2022-12-18T16:19:44.857Z,16.17
2022-12-18T16:22:26.350Z,17.20
2022-12-18T16:24:54.492Z,15.50
2022-12-18T16:27:21.530Z,18.80
2022-12-18T16:29:48.229Z,15.10
2022-12-18T16:32:17.786Z,16.15
2022-12-18T16:34:45.180Z,14.68
2022-12-18T16:37:13.813Z,20.53
2022-12-18T16:39:42.088Z,18.92
2022-12-18T16:42:17.143Z,20.10
2022-12-18T16:44:44.377Z,22.27
2022-12-18T16:47:13.271Z,22.35
2022-12-18T16:49:41.814Z,18.00
2022-12-18T16:52:08.483Z,19.23
2022-12-18T16:54:36.706Z,18.50
2022-12-18T16:57:05.272Z,21.10
2022-12-18T16:59:31.929Z,18.75
2022-12-18T17:01:58.640Z,19.27
2022-12-18T17:04:25.545Z,19.50
2022-12-18T17:06:53.776Z,22.83
2022-12-18T17:09:27.722Z,19.92
2022-12-18T17:11:55.055Z,20.77
2022-12-18T17:14:24.909Z,21.00
2022-12-18T17:17:19.115Z,21.55
2022-12-18T17:19:39.024Z,18.90
2022-12-18T17:22:05.456Z,20.08
2022-12-18T17:24:35.068Z,20.42
2022-12-18T17:27:02.675Z,20.77
2022-12-18T17:29:29.272Z,16.17
2022-12-18T17:31:55.728Z,21.75
2022-12-18T17:34:23.720Z,19.73
2022-12-18T17:36:50.122Z,21.33
2022-12-18T17:39:19.256Z,17.80
2022-12-18T17:41:46.462Z,19.63
2022-12-18T17:44:13.227Z,18.08
2022-12-18T17:46:39.734Z,19.50
2022-12-18T17:49:06.262Z,21.67
2022-12-18T17:51:32.807Z,34.15
2022-12-18T17:53:59.302Z,26.13
2022-12-18T17:56:25.821Z,23.63
2022-12-18T17:58:52.409Z,23.63
2022-12-18T18:01:23.259Z,25.17
2022-12-18T18:03:52.983Z,27.40
2022-12-18T18:06:20.463Z,20.42
2022-12-18T18:08:46.986Z,23.38
2022-12-18T18:11:34.587Z,17.10
2022-12-18T18:14:01.769Z,20.07
2022-12-18T18:16:31.609Z,21.70
2022-12-18T18:19:00.453Z,24.98
2022-12-18T18:21:27.951Z,21.85
2022-12-18T18:23:54.947Z,19.23
2022-12-18T18:26:22.113Z,25.07
2022-12-18T18:28:48.995Z,18.42
2022-12-18T18:31:15.564Z,22.65
2022-12-18T18:33:42.996Z,20.02
2022-12-18T18:36:11.286Z,21.02
2022-12-18T18:38:37.915Z,21.07
2022-12-18T18:41:05.654Z,20.13
2022-12-18T18:43:32.765Z,17.55
2022-12-18T18:46:01.541Z,21.58
2022-12-18T18:48:30.974Z,19.75
2022-12-18T18:51:00.603Z,22.43
2022-12-18T18:53:28.390Z,21.67
2022-12-18T18:56:32.589Z,23.05
2022-12-18T18:58:45.611Z,19.90
2022-12-18T19:01:14.773Z,21.85
2022-12-18T19:03:42.551Z,21.10
2022-12-18T19:06:14.770Z,21.30
2022-12-18T19:08:41.812Z,22.27
2022-12-18T19:11:36.025Z,19.02
2022-12-18T19:14:05.468Z,24.05
2022-12-18T19:16:33.306Z,22.50
2022-12-18T19:19:02.386Z,19.33
2022-12-18T19:21:30.481Z,19.38
2022-12-18T19:24:00.023Z,23.95
2022-12-18T19:26:28.265Z,26.15
2022-12-18T19:29:00.886Z,26.83
2022-12-18T19:31:31.951Z,24.30
2022-12-18T19:34:00.303Z,20.85
2022-12-18T19:36:29.859Z,23.75
2022-12-18T19:38:59.089Z,21.98
2022-12-18T19:41:29.163Z,23.57
2022-12-18T19:43:59.605Z,20.65
2022-12-18T19:46:26.060Z,20.30
2022-12-18T19:48:52.874Z,23.15
2022-12-18T19:51:24.806Z,25.15
2022-12-18T19:53:58.152Z,18.87
2022-12-18T19:56:27.256Z,22.25
2022-12-18T19:58:54.945Z,22.13
2022-12-18T20:01:23.107Z,18.92
2022-12-18T20:03:52.301Z,22.63
2022-12-18T20:06:25.658Z,22.17
2022-12-18T20:08:53.993Z,23.30
2022-12-18T20:11:24.449Z,21.27
2022-12-18T20:13:50.873Z,24.38
2022-12-18T20:16:17.852Z,20.67
2022-12-18T20:18:44.374Z,20.10
2022-12-18T20:21:14.060Z,21.23
2022-12-18T20:23:41.615Z,22.33
2022-12-18T20:26:08.761Z,25.42
2022-12-18T20:28:35.542Z,23.88
2022-12-18T20:31:04.919Z,25.63
2022-12-18T20:33:31.470Z,25.42
2022-12-18T20:36:06.762Z,19.90
2022-12-18T20:38:35.536Z,25.63
2022-12-18T20:41:07.262Z,24.90
2022-12-18T20:43:33.746Z,26.43
2022-12-18T20:46:02.029Z,26.98
2022-12-18T20:48:29.722Z,24.40
2022-12-18T20:51:00.251Z,30.00
2022-12-18T20:53:30.127Z,26.10
2022-12-18T20:55:56.616Z,24.30
2022-12-18T20:58:23.315Z,25.63
2022-12-18T21:00:50.232Z,31.35
2022-12-18T21:03:18.043Z,28.48
2022-12-18T21:05:44.562Z,26.60
2022-12-18T21:08:11.085Z,24.93
2022-12-18T21:10:41.617Z,26.15
2022-12-18T21:13:08.698Z,23.80
2022-12-18T21:15:36.808Z,25.92
2022-12-18T21:18:04.260Z,28.33
2022-12-18T21:20:30.670Z,24.90
2022-12-18T21:23:03.448Z,22.88
2022-12-18T21:25:42.806Z,28.05
2022-12-18T21:28:09.283Z,24.63
2022-12-18T21:30:35.745Z,26.95
2022-12-18T21:33:02.362Z,26.63
2022-12-18T21:35:29.277Z,29.33
2022-12-18T21:37:58.464Z,24.17
2022-12-18T21:40:25.252Z,24.98
2022-12-18T21:43:10.325Z,25.75
2022-12-18T21:45:40.371Z,22.97
2022-12-18T21:48:06.947Z,26.88
2022-12-18T21:50:33.364Z,23.80
2022-12-18T21:53:00.099Z,28.55
2022-12-18T21:55:26.610Z,26.65
2022-12-18T21:57:54.664Z,26.87
2022-12-18T22:00:21.205Z,26.67
2022-12-18T22:03:17.189Z,22.63
2022-12-18T22:05:35.520Z,29.70
2022-12-18T22:08:01.966Z,26.88
2022-12-18T22:10:28.549Z,28.37
2022-12-18T22:12:55.212Z,25.30
2022-12-18T22:15:22.032Z,24.17
2022-12-18T22:17:59.519Z,30.50
2022-12-18T22:20:27.150Z,26.55
2022-12-18T22:22:53.570Z,25.37
2022-12-18T22:25:20.042Z,30.50
2022-12-18T22:28:06.426Z,35.65
2022-12-18T22:30:33.369Z,29.88
2022-12-18T22:33:00.359Z,29.13
2022-12-18T22:35:26.790Z,31.67
2022-12-18T22:37:53.490Z,24.65
2022-12-18T22:40:26.503Z,30.25
2022-12-18T22:42:54.570Z,22.00
2022-12-18T22:45:25.731Z,26.55
2022-12-18T22:47:52.704Z,26.87
2022-12-18T22:50:19.757Z,24.90
2022-12-18T22:52:46.210Z,26.92
2022-12-18T22:55:12.689Z,27.77
2022-12-18T22:57:39.407Z,29.17
2022-12-18T23:00:09.248Z,29.27
2022-12-18T23:02:35.866Z,25.95
2022-12-18T23:05:02.639Z,30.35
2022-12-18T23:07:29.296Z,25.95
2022-12-18T23:10:00.722Z,29.45
2022-12-18T23:12:27.791Z,26.13
2022-12-18T23:14:54.522Z,30.23
2022-12-18T23:17:20.888Z,23.40
2022-12-18T23:19:49.273Z,24.95
2022-12-18T23:22:16.928Z,26.30
2022-12-18T23:24:43.521Z,28.30
2022-12-18T23:27:11.731Z,27.30
2022-12-18T23:29:41.873Z,27.02
2022-12-18T23:32:08.324Z,28.70
2022-12-18T23:34:34.785Z,27.23
2022-12-18T23:37:03.554Z,30.20
2022-12-18T23:39:30.449Z,29.50
2022-12-18T23:42:00.870Z,32.28
2022-12-18T23:44:28.068Z,29.65
2022-12-18T23:46:55.015Z,32.20
2022-12-18T23:49:21.763Z,32.23
2022-12-18T23:51:48.426Z,29.95
2022-12-18T23:54:14.964Z,32.85
2022-12-18T23:56:44.253Z,30.00
2022-12-18T23:59:10.822Z,26.77
